sensor_id;sensor_type;location;lat;lon;timestamp;P1;durP1;ratioP1;P2;durP2;ratioP2
18883;SDS011;9574;47.282;9.640;2022-09-09T00:02:18;4.82;;;1.27;;
18883;SDS011;9574;47.282;9.640;2022-09-09T00:04:49;0.80;;;0.80;;
18883;SDS011;9574;47.282;9.640;2022-09-09T00:07:28;1.17;;;1.00;;
18883;SDS011;9574;47.282;9.640;2022-09-09T00:10:07;1.23;;;1.08;;
18883;SDS011;9574;47.282;9.640;2022-09-09T00:12:44;0.95;;;0.85;;
18883;SDS011;9574;47.282;9.640;2022-09-09T00:15:20;1.15;;;0.75;;
18883;SDS011;9574;47.282;9.640;2022-09-09T00:17:52;0.82;;;0.82;;
18883;SDS011;9574;47.282;9.640;2022-09-09T00:20:24;0.80;;;0.80;;
18883;SDS011;9574;47.282;9.640;2022-09-09T00:22:57;1.05;;;0.95;;
18883;SDS011;9574;47.282;9.640;2022-09-09T00:25:32;0.70;;;0.70;;
18883;SDS011;9574;47.282;9.640;2022-09-09T00:28:08;1.67;;;0.80;;
18883;SDS011;9574;47.282;9.640;2022-09-09T00:30:44;1.00;;;0.90;;
18883;SDS011;9574;47.282;9.640;2022-09-09T00:33:15;0.77;;;0.77;;
18883;SDS011;9574;47.282;9.640;2022-09-09T00:35:47;1.85;;;0.95;;
18883;SDS011;9574;47.282;9.640;2022-09-09T00:38:16;5.38;;;1.02;;
18883;SDS011;9574;47.282;9.640;2022-09-09T00:40:49;0.75;;;0.75;;
18883;SDS011;9574;47.282;9.640;2022-09-09T00:43:21;0.90;;;0.85;;
18883;SDS011;9574;47.282;9.640;2022-09-09T00:45:57;0.95;;;0.80;;
18883;SDS011;9574;47.282;9.640;2022-09-09T00:48:38;1.90;;;0.90;;
18883;SDS011;9574;47.282;9.640;2022-09-09T00:51:17;0.90;;;0.90;;
18883;SDS011;9574;47.282;9.640;2022-09-09T00:53:58;5.30;;;1.00;;
18883;SDS011;9574;47.282;9.640;2022-09-09T00:56:40;1.27;;;0.98;;
18883;SDS011;9574;47.282;9.640;2022-09-09T00:59:16;0.90;;;0.90;;
18883;SDS011;9574;47.282;9.640;2022-09-09T01:01:49;1.10;;;1.00;;
18883;SDS011;9574;47.282;9.640;2022-09-09T01:04:21;1.25;;;0.90;;
18883;SDS011;9574;47.282;9.640;2022-09-09T01:06:59;0.63;;;0.63;;
18883;SDS011;9574;47.282;9.640;2022-09-09T01:09:38;1.67;;;1.00;;
18883;SDS011;9574;47.282;9.640;2022-09-09T01:12:14;1.15;;;1.00;;
18883;SDS011;9574;47.282;9.640;2022-09-09T01:14:43;1.40;;;1.13;;
18883;SDS011;9574;47.282;9.640;2022-09-09T01:17:14;1.00;;;0.90;;
18883;SDS011;9574;47.282;9.640;2022-09-09T01:19:52;3.45;;;1.00;;
18883;SDS011;9574;47.282;9.640;2022-09-09T01:22:29;3.33;;;0.90;;
18883;SDS011;9574;47.282;9.640;2022-09-09T01:25:11;1.10;;;0.80;;
18883;SDS011;9574;47.282;9.640;2022-09-09T01:27:56;1.35;;;0.85;;
18883;SDS011;9574;47.282;9.640;2022-09-09T01:30:26;0.90;;;0.85;;
18883;SDS011;9574;47.282;9.640;2022-09-09T01:32:55;1.15;;;0.77;;
18883;SDS011;9574;47.282;9.640;2022-09-09T01:35:37;1.35;;;1.10;;
18883;SDS011;9574;47.282;9.640;2022-09-09T01:38:11;1.10;;;0.88;;
18883;SDS011;9574;47.282;9.640;2022-09-09T01:40:39;0.70;;;0.70;;
18883;SDS011;9574;47.282;9.640;2022-09-09T01:43:08;0.80;;;0.80;;
18883;SDS011;9574;47.282;9.640;2022-09-09T01:45:35;0.80;;;0.80;;
18883;SDS011;9574;47.282;9.640;2022-09-09T01:48:03;1.30;;;0.95;;
18883;SDS011;9574;47.282;9.640;2022-09-09T01:50:30;3.38;;;1.10;;
18883;SDS011;9574;47.282;9.640;2022-09-09T01:52:58;0.75;;;0.75;;
18883;SDS011;9574;47.282;9.640;2022-09-09T01:55:28;0.75;;;0.75;;
18883;SDS011;9574;47.282;9.640;2022-09-09T01:58:01;0.68;;;0.68;;
18883;SDS011;9574;47.282;9.640;2022-09-09T02:00:39;1.00;;;0.90;;
18883;SDS011;9574;47.282;9.640;2022-09-09T02:03:14;1.08;;;0.90;;
18883;SDS011;9574;47.282;9.640;2022-09-09T02:05:49;1.48;;;1.08;;
18883;SDS011;9574;47.282;9.640;2022-09-09T02:08:25;1.23;;;1.10;;
18883;SDS011;9574;47.282;9.640;2022-09-09T02:11:00;2.45;;;0.70;;
18883;SDS011;9574;47.282;9.640;2022-09-09T02:13:32;2.22;;;1.10;;
18883;SDS011;9574;47.282;9.640;2022-09-09T02:16:04;1.27;;;0.90;;
18883;SDS011;9574;47.282;9.640;2022-09-09T02:18:35;0.95;;;0.90;;
18883;SDS011;9574;47.282;9.640;2022-09-09T02:21:06;1.27;;;0.95;;
18883;SDS011;9574;47.282;9.640;2022-09-09T02:23:36;0.88;;;0.88;;
18883;SDS011;9574;47.282;9.640;2022-09-09T02:26:06;1.63;;;0.90;;
18883;SDS011;9574;47.282;9.640;2022-09-09T02:28:35;2.60;;;1.00;;
18883;SDS011;9574;47.282;9.640;2022-09-09T02:31:05;3.42;;;0.93;;
18883;SDS011;9574;47.282;9.640;2022-09-09T02:33:33;2.70;;;1.10;;
18883;SDS011;9574;47.282;9.640;2022-09-09T02:36:05;0.90;;;0.90;;
18883;SDS011;9574;47.282;9.640;2022-09-09T02:38:36;0.88;;;0.85;;
18883;SDS011;9574;47.282;9.640;2022-09-09T02:41:06;1.60;;;1.00;;
18883;SDS011;9574;47.282;9.640;2022-09-09T02:43:33;0.70;;;0.70;;
18883;SDS011;9574;47.282;9.640;2022-09-09T02:46:03;1.10;;;0.55;;
18883;SDS011;9574;47.282;9.640;2022-09-09T02:48:47;2.15;;;0.80;;
18883;SDS011;9574;47.282;9.640;2022-09-09T02:51:27;1.38;;;0.80;;
18883;SDS011;9574;47.282;9.640;2022-09-09T02:54:02;0.82;;;0.75;;
18883;SDS011;9574;47.282;9.640;2022-09-09T02:56:37;0.95;;;0.80;;
18883;SDS011;9574;47.282;9.640;2022-09-09T02:59:08;1.33;;;0.82;;
18883;SDS011;9574;47.282;9.640;2022-09-09T03:01:36;1.58;;;1.08;;
18883;SDS011;9574;47.282;9.640;2022-09-09T03:04:05;1.27;;;1.15;;
18883;SDS011;9574;47.282;9.640;2022-09-09T03:06:32;2.60;;;0.98;;
18883;SDS011;9574;47.282;9.640;2022-09-09T03:09:00;1.00;;;0.90;;
18883;SDS011;9574;47.282;9.640;2022-09-09T03:11:28;2.47;;;1.02;;
18883;SDS011;9574;47.282;9.640;2022-09-09T03:13:55;2.55;;;0.93;;
18883;SDS011;9574;47.282;9.640;2022-09-09T03:16:22;2.53;;;1.08;;
18883;SDS011;9574;47.282;9.640;2022-09-09T03:18:50;1.42;;;1.33;;
18883;SDS011;9574;47.282;9.640;2022-09-09T03:21:17;2.67;;;1.10;;
18883;SDS011;9574;47.282;9.640;2022-09-09T03:23:44;1.60;;;0.80;;
18883;SDS011;9574;47.282;9.640;2022-09-09T03:26:12;2.88;;;0.93;;
18883;SDS011;9574;47.282;9.640;2022-09-09T03:28:40;1.08;;;0.98;;
18883;SDS011;9574;47.282;9.640;2022-09-09T03:31:07;1.10;;;1.00;;
18883;SDS011;9574;47.282;9.640;2022-09-09T03:33:35;1.70;;;1.02;;
18883;SDS011;9574;47.282;9.640;2022-09-09T03:36:04;3.85;;;0.90;;
18883;SDS011;9574;47.282;9.640;2022-09-09T03:38:32;1.10;;;1.00;;
18883;SDS011;9574;47.282;9.640;2022-09-09T03:41:00;1.73;;;0.80;;
18883;SDS011;9574;47.282;9.640;2022-09-09T03:43:27;0.95;;;0.85;;
18883;SDS011;9574;47.282;9.640;2022-09-09T03:45:55;1.15;;;0.73;;
18883;SDS011;9574;47.282;9.640;2022-09-09T03:48:23;5.25;;;0.90;;
18883;SDS011;9574;47.282;9.640;2022-09-09T03:50:53;0.88;;;0.88;;
18883;SDS011;9574;47.282;9.640;2022-09-09T03:53:22;2.83;;;1.75;;
18883;SDS011;9574;47.282;9.640;2022-09-09T03:55:51;4.95;;;0.95;;
18883;SDS011;9574;47.282;9.640;2022-09-09T03:58:20;0.95;;;0.80;;
18883;SDS011;9574;47.282;9.640;2022-09-09T04:00:58;4.53;;;0.85;;
18883;SDS011;9574;47.282;9.640;2022-09-09T04:03:26;1.00;;;0.90;;
18883;SDS011;9574;47.282;9.640;2022-09-09T04:05:54;1.92;;;1.05;;
18883;SDS011;9574;47.282;9.640;2022-09-09T04:08:23;1.02;;;0.73;;
18883;SDS011;9574;47.282;9.640;2022-09-09T04:10:51;2.20;;;1.00;;
18883;SDS011;9574;47.282;9.640;2022-09-09T04:13:22;1.45;;;0.90;;
18883;SDS011;9574;47.282;9.640;2022-09-09T04:15:50;1.45;;;0.68;;
18883;SDS011;9574;47.282;9.640;2022-09-09T04:18:18;1.73;;;1.05;;
18883;SDS011;9574;47.282;9.640;2022-09-09T04:20:46;1.95;;;0.80;;
18883;SDS011;9574;47.282;9.640;2022-09-09T04:23:13;1.08;;;0.95;;
18883;SDS011;9574;47.282;9.640;2022-09-09T04:25:44;0.85;;;0.85;;
18883;SDS011;9574;47.282;9.640;2022-09-09T04:28:12;1.00;;;0.60;;
18883;SDS011;9574;47.282;9.640;2022-09-09T04:30:39;0.68;;;0.68;;
18883;SDS011;9574;47.282;9.640;2022-09-09T04:33:07;0.85;;;0.70;;
18883;SDS011;9574;47.282;9.640;2022-09-09T04:35:34;1.38;;;1.05;;
18883;SDS011;9574;47.282;9.640;2022-09-09T04:38:01;2.78;;;1.05;;
18883;SDS011;9574;47.282;9.640;2022-09-09T04:40:28;4.10;;;0.80;;
18883;SDS011;9574;47.282;9.640;2022-09-09T04:42:58;1.88;;;0.80;;
18883;SDS011;9574;47.282;9.640;2022-09-09T04:45:26;2.97;;;1.30;;
18883;SDS011;9574;47.282;9.640;2022-09-09T04:47:53;1.40;;;1.30;;
18883;SDS011;9574;47.282;9.640;2022-09-09T04:50:20;1.95;;;1.13;;
18883;SDS011;9574;47.282;9.640;2022-09-09T04:52:47;2.75;;;1.30;;
18883;SDS011;9574;47.282;9.640;2022-09-09T04:55:14;1.10;;;1.00;;
18883;SDS011;9574;47.282;9.640;2022-09-09T04:57:41;1.67;;;0.80;;
18883;SDS011;9574;47.282;9.640;2022-09-09T05:00:10;2.20;;;1.20;;
18883;SDS011;9574;47.282;9.640;2022-09-09T05:02:38;1.48;;;1.13;;
18883;SDS011;9574;47.282;9.640;2022-09-09T05:05:07;4.25;;;1.10;;
18883;SDS011;9574;47.282;9.640;2022-09-09T05:07:36;1.25;;;1.05;;
18883;SDS011;9574;47.282;9.640;2022-09-09T05:10:03;3.63;;;1.20;;
18883;SDS011;9574;47.282;9.640;2022-09-09T05:12:31;1.35;;;1.25;;
18883;SDS011;9574;47.282;9.640;2022-09-09T05:14:58;2.20;;;1.37;;
18883;SDS011;9574;47.282;9.640;2022-09-09T05:17:26;3.90;;;1.27;;
18883;SDS011;9574;47.282;9.640;2022-09-09T05:19:53;2.70;;;1.20;;
18883;SDS011;9574;47.282;9.640;2022-09-09T05:22:21;2.28;;;1.75;;
18883;SDS011;9574;47.282;9.640;2022-09-09T05:24:48;1.25;;;1.10;;
18883;SDS011;9574;47.282;9.640;2022-09-09T05:27:16;1.20;;;1.10;;
18883;SDS011;9574;47.282;9.640;2022-09-09T05:29:44;1.42;;;1.00;;
18883;SDS011;9574;47.282;9.640;2022-09-09T05:32:11;2.30;;;1.17;;
18883;SDS011;9574;47.282;9.640;2022-09-09T05:34:41;4.88;;;1.25;;
18883;SDS011;9574;47.282;9.640;2022-09-09T05:37:08;1.67;;;1.33;;
18883;SDS011;9574;47.282;9.640;2022-09-09T05:39:35;2.07;;;1.20;;
18883;SDS011;9574;47.282;9.640;2022-09-09T05:42:03;1.40;;;1.25;;
18883;SDS011;9574;47.282;9.640;2022-09-09T05:44:30;6.50;;;1.30;;
18883;SDS011;9574;47.282;9.640;2022-09-09T05:46:57;1.40;;;1.30;;
18883;SDS011;9574;47.282;9.640;2022-09-09T05:49:24;3.60;;;1.60;;
18883;SDS011;9574;47.282;9.640;2022-09-09T05:51:53;2.33;;;1.80;;
18883;SDS011;9574;47.282;9.640;2022-09-09T05:54:20;1.75;;;1.40;;
18883;SDS011;9574;47.282;9.640;2022-09-09T05:56:47;3.08;;;1.73;;
18883;SDS011;9574;47.282;9.640;2022-09-09T05:59:14;2.22;;;1.42;;
18883;SDS011;9574;47.282;9.640;2022-09-09T06:01:41;1.98;;;1.63;;
18883;SDS011;9574;47.282;9.640;2022-09-09T06:04:10;2.20;;;1.73;;
18883;SDS011;9574;47.282;9.640;2022-09-09T06:06:37;5.63;;;1.80;;
18883;SDS011;9574;47.282;9.640;2022-09-09T06:09:07;2.28;;;1.55;;
18883;SDS011;9574;47.282;9.640;2022-09-09T06:11:36;1.73;;;1.48;;
18883;SDS011;9574;47.282;9.640;2022-09-09T06:14:04;1.75;;;1.50;;
18883;SDS011;9574;47.282;9.640;2022-09-09T06:16:32;2.30;;;1.40;;
18883;SDS011;9574;47.282;9.640;2022-09-09T06:19:00;1.98;;;1.70;;
18883;SDS011;9574;47.282;9.640;2022-09-09T06:21:29;2.78;;;1.80;;
18883;SDS011;9574;47.282;9.640;2022-09-09T06:23:58;2.17;;;1.63;;
18883;SDS011;9574;47.282;9.640;2022-09-09T06:26:28;2.65;;;1.38;;
18883;SDS011;9574;47.282;9.640;2022-09-09T06:28:56;2.42;;;1.50;;
18883;SDS011;9574;47.282;9.640;2022-09-09T06:31:24;1.88;;;1.40;;
18883;SDS011;9574;47.282;9.640;2022-09-09T06:33:55;4.97;;;1.50;;
18883;SDS011;9574;47.282;9.640;2022-09-09T06:36:24;2.08;;;1.45;;
18883;SDS011;9574;47.282;9.640;2022-09-09T06:38:52;1.85;;;1.40;;
18883;SDS011;9574;47.282;9.640;2022-09-09T06:41:20;1.42;;;1.30;;
18883;SDS011;9574;47.282;9.640;2022-09-09T06:43:49;5.88;;;1.42;;
18883;SDS011;9574;47.282;9.640;2022-09-09T06:46:17;3.00;;;1.70;;
18883;SDS011;9574;47.282;9.640;2022-09-09T06:48:45;1.40;;;1.30;;
18883;SDS011;9574;47.282;9.640;2022-09-09T06:51:13;5.07;;;2.08;;
18883;SDS011;9574;47.282;9.640;2022-09-09T06:53:42;2.13;;;1.60;;
18883;SDS011;9574;47.282;9.640;2022-09-09T06:56:20;2.88;;;1.38;;
18883;SDS011;9574;47.282;9.640;2022-09-09T06:58:51;2.22;;;1.35;;
18883;SDS011;9574;47.282;9.640;2022-09-09T07:01:20;2.17;;;1.45;;
18883;SDS011;9574;47.282;9.640;2022-09-09T07:03:48;2.25;;;1.58;;
18883;SDS011;9574;47.282;9.640;2022-09-09T07:06:17;1.92;;;1.38;;
18883;SDS011;9574;47.282;9.640;2022-09-09T07:08:48;1.52;;;1.15;;
18883;SDS011;9574;47.282;9.640;2022-09-09T07:11:18;4.43;;;1.90;;
18883;SDS011;9574;47.282;9.640;2022-09-09T07:13:46;6.13;;;1.40;;
18883;SDS011;9574;47.282;9.640;2022-09-09T07:16:15;1.98;;;1.25;;
18883;SDS011;9574;47.282;9.640;2022-09-09T07:18:43;4.63;;;1.58;;
18883;SDS011;9574;47.282;9.640;2022-09-09T07:21:11;5.28;;;1.45;;
18883;SDS011;9574;47.282;9.640;2022-09-09T07:23:39;2.53;;;1.30;;
18883;SDS011;9574;47.282;9.640;2022-09-09T07:26:08;3.17;;;1.20;;
18883;SDS011;9574;47.282;9.640;2022-09-09T07:28:36;3.22;;;1.40;;
18883;SDS011;9574;47.282;9.640;2022-09-09T07:31:04;2.40;;;1.33;;
18883;SDS011;9574;47.282;9.640;2022-09-09T07:33:33;2.45;;;1.35;;
18883;SDS011;9574;47.282;9.640;2022-09-09T07:36:05;1.40;;;1.30;;
18883;SDS011;9574;47.282;9.640;2022-09-09T07:38:37;3.10;;;1.83;;
18883;SDS011;9574;47.282;9.640;2022-09-09T07:41:06;2.28;;;1.40;;
18883;SDS011;9574;47.282;9.640;2022-09-09T07:43:37;1.65;;;1.27;;
18883;SDS011;9574;47.282;9.640;2022-09-09T07:46:05;3.80;;;1.50;;
18883;SDS011;9574;47.282;9.640;2022-09-09T07:48:34;4.07;;;1.40;;
18883;SDS011;9574;47.282;9.640;2022-09-09T07:51:05;2.72;;;1.77;;
18883;SDS011;9574;47.282;9.640;2022-09-09T07:53:33;4.38;;;1.40;;
18883;SDS011;9574;47.282;9.640;2022-09-09T07:56:05;1.95;;;1.38;;
18883;SDS011;9574;47.282;9.640;2022-09-09T07:58:34;2.13;;;1.42;;
18883;SDS011;9574;47.282;9.640;2022-09-09T08:01:05;1.08;;;0.80;;
18883;SDS011;9574;47.282;9.640;2022-09-09T08:03:34;1.33;;;1.20;;
18883;SDS011;9574;47.282;9.640;2022-09-09T08:06:01;2.70;;;1.10;;
18883;SDS011;9574;47.282;9.640;2022-09-09T08:08:29;1.88;;;1.38;;
18883;SDS011;9574;47.282;9.640;2022-09-09T08:11:05;1.60;;;1.20;;
18883;SDS011;9574;47.282;9.640;2022-09-09T08:13:34;2.22;;;1.48;;
18883;SDS011;9574;47.282;9.640;2022-09-09T08:16:05;1.90;;;1.15;;
18883;SDS011;9574;47.282;9.640;2022-09-09T08:18:34;4.40;;;1.30;;
18883;SDS011;9574;47.282;9.640;2022-09-09T08:21:06;5.13;;;1.30;;
18883;SDS011;9574;47.282;9.640;2022-09-09T08:23:37;1.88;;;1.30;;
18883;SDS011;9574;47.282;9.640;2022-09-09T08:26:05;2.08;;;1.30;;
18883;SDS011;9574;47.282;9.640;2022-09-09T08:28:34;2.45;;;1.30;;
18883;SDS011;9574;47.282;9.640;2022-09-09T08:31:04;2.20;;;1.33;;
18883;SDS011;9574;47.282;9.640;2022-09-09T08:33:37;1.45;;;1.35;;
18883;SDS011;9574;47.282;9.640;2022-09-09T08:36:06;1.83;;;1.00;;
18883;SDS011;9574;47.282;9.640;2022-09-09T08:38:35;2.45;;;1.20;;
18883;SDS011;9574;47.282;9.640;2022-09-09T08:44:02;3.10;;;1.33;;
18883;SDS011;9574;47.282;9.640;2022-09-09T08:46:36;1.27;;;1.17;;
18883;SDS011;9574;47.282;9.640;2022-09-09T08:49:16;1.98;;;1.30;;
18883;SDS011;9574;47.282;9.640;2022-09-09T08:51:53;1.23;;;1.13;;
18883;SDS011;9574;47.282;9.640;2022-09-09T08:54:22;2.28;;;1.20;;
18883;SDS011;9574;47.282;9.640;2022-09-09T08:56:50;2.77;;;1.40;;
18883;SDS011;9574;47.282;9.640;2022-09-09T08:59:17;3.03;;;1.60;;
18883;SDS011;9574;47.282;9.640;2022-09-09T09:01:50;1.88;;;1.10;;
18883;SDS011;9574;47.282;9.640;2022-09-09T09:07:21;0.98;;;0.98;;
18883;SDS011;9574;47.282;9.640;2022-09-09T09:09:57;2.30;;;1.33;;
18883;SDS011;9574;47.282;9.640;2022-09-09T09:12:30;1.00;;;1.00;;
18883;SDS011;9574;47.282;9.640;2022-09-09T09:15:05;4.10;;;1.00;;
18883;SDS011;9574;47.282;9.640;2022-09-09T09:17:44;1.03;;;0.97;;
18883;SDS011;9574;47.282;9.640;2022-09-09T09:20:13;0.70;;;0.70;;
18883;SDS011;9574;47.282;9.640;2022-09-09T09:22:44;1.27;;;0.87;;
18883;SDS011;9574;47.282;9.640;2022-09-09T09:25:16;0.80;;;0.80;;
18883;SDS011;9574;47.282;9.640;2022-09-09T09:27:47;0.80;;;0.80;;
18883;SDS011;9574;47.282;9.640;2022-09-09T09:30:21;1.03;;;0.80;;
18883;SDS011;9574;47.282;9.640;2022-09-09T09:32:52;1.27;;;0.90;;
18883;SDS011;9574;47.282;9.640;2022-09-09T09:35:23;1.27;;;0.77;;
18883;SDS011;9574;47.282;9.640;2022-09-09T09:37:50;1.47;;;0.67;;
18883;SDS011;9574;47.282;9.640;2022-09-09T09:40:17;4.33;;;1.00;;
18883;SDS011;9574;47.282;9.640;2022-09-09T09:42:49;2.00;;;0.83;;
18883;SDS011;9574;47.282;9.640;2022-09-09T09:45:20;0.97;;;0.73;;
18883;SDS011;9574;47.282;9.640;2022-09-09T09:47:58;0.63;;;0.63;;
18883;SDS011;9574;47.282;9.640;2022-09-09T09:50:28;0.63;;;0.63;;
18883;SDS011;9574;47.282;9.640;2022-09-09T09:52:58;1.30;;;0.70;;
18883;SDS011;9574;47.282;9.640;2022-09-09T09:55:29;0.70;;;0.70;;
18883;SDS011;9574;47.282;9.640;2022-09-09T09:58:02;0.80;;;0.80;;
18883;SDS011;9574;47.282;9.640;2022-09-09T10:00:30;2.53;;;0.95;;
18883;SDS011;9574;47.282;9.640;2022-09-09T10:02:59;1.77;;;1.00;;
18883;SDS011;9574;47.282;9.640;2022-09-09T10:05:27;1.15;;;0.90;;
18883;SDS011;9574;47.282;9.640;2022-09-09T10:08:00;0.73;;;0.65;;
18883;SDS011;9574;47.282;9.640;2022-09-09T10:10:32;1.50;;;0.77;;
18883;SDS011;9574;47.282;9.640;2022-09-09T10:13:05;0.80;;;0.77;;
18883;SDS011;9574;47.282;9.640;2022-09-09T10:15:44;0.60;;;0.60;;
18883;SDS011;9574;47.282;9.640;2022-09-09T10:21:15;1.27;;;0.70;;
18883;SDS011;9574;47.282;9.640;2022-09-09T10:24:07;0.75;;;0.60;;
18883;SDS011;9574;47.282;9.640;2022-09-09T10:26:49;0.63;;;0.60;;
18883;SDS011;9574;47.282;9.640;2022-09-09T10:29:38;0.70;;;0.70;;
18883;SDS011;9574;47.282;9.640;2022-09-09T10:35:09;1.25;;;0.88;;
18883;SDS011;9574;47.282;9.640;2022-09-09T10:40:37;1.90;;;1.23;;
18883;SDS011;9574;47.282;9.640;2022-09-09T10:43:10;0.90;;;0.90;;
18883;SDS011;9574;47.282;9.640;2022-09-09T10:45:48;0.80;;;0.80;;
18883;SDS011;9574;47.282;9.640;2022-09-09T10:48:29;1.17;;;0.90;;
18883;SDS011;9574;47.282;9.640;2022-09-09T10:51:09;1.03;;;0.90;;
18883;SDS011;9574;47.282;9.640;2022-09-09T10:53:52;1.10;;;1.00;;
18883;SDS011;9574;47.282;9.640;2022-09-09T10:56:29;0.90;;;0.90;;
18883;SDS011;9574;47.282;9.640;2022-09-09T10:58:59;0.73;;;0.73;;
18883;SDS011;9574;47.282;9.640;2022-09-09T11:01:32;1.80;;;1.00;;
18883;SDS011;9574;47.282;9.640;2022-09-09T11:04:08;1.02;;;0.75;;
18883;SDS011;9574;47.282;9.640;2022-09-09T11:06:42;0.80;;;0.80;;
18883;SDS011;9574;47.282;9.640;2022-09-09T11:09:15;0.70;;;0.70;;
18883;SDS011;9574;47.282;9.640;2022-09-09T11:11:46;1.65;;;0.73;;
18883;SDS011;9574;47.282;9.640;2022-09-09T11:14:19;0.93;;;0.73;;
18883;SDS011;9574;47.282;9.640;2022-09-09T11:16:56;2.38;;;0.60;;
18883;SDS011;9574;47.282;9.640;2022-09-09T11:19:27;0.65;;;0.65;;
18883;SDS011;9574;47.282;9.640;2022-09-09T11:22:00;0.60;;;0.57;;
18883;SDS011;9574;47.282;9.640;2022-09-09T11:24:32;1.75;;;0.80;;
18883;SDS011;9574;47.282;9.640;2022-09-09T11:27:06;0.60;;;0.60;;
18883;SDS011;9574;47.282;9.640;2022-09-09T11:35:33;0.60;;;0.60;;
18883;SDS011;9574;47.282;9.640;2022-09-09T11:38:19;1.13;;;0.60;;
18883;SDS011;9574;47.282;9.640;2022-09-09T11:40:55;2.65;;;0.70;;
18883;SDS011;9574;47.282;9.640;2022-09-09T11:43:27;0.57;;;0.55;;
18883;SDS011;9574;47.282;9.640;2022-09-09T11:46:01;0.40;;;0.40;;
18883;SDS011;9574;47.282;9.640;2022-09-09T11:48:31;0.45;;;0.40;;
18883;SDS011;9574;47.282;9.640;2022-09-09T11:51:01;0.40;;;0.40;;
18883;SDS011;9574;47.282;9.640;2022-09-09T11:53:46;1.30;;;0.52;;
18883;SDS011;9574;47.282;9.640;2022-09-09T11:56:23;0.40;;;0.40;;
18883;SDS011;9574;47.282;9.640;2022-09-09T11:58:56;1.52;;;0.60;;
18883;SDS011;9574;47.282;9.640;2022-09-09T12:01:29;0.43;;;0.40;;
18883;SDS011;9574;47.282;9.640;2022-09-09T12:04:14;1.95;;;0.50;;
18883;SDS011;9574;47.282;9.640;2022-09-09T12:06:45;0.47;;;0.47;;
18883;SDS011;9574;47.282;9.640;2022-09-09T12:09:18;0.60;;;0.55;;
18883;SDS011;9574;47.282;9.640;2022-09-09T12:12:04;0.85;;;0.40;;
18883;SDS011;9574;47.282;9.640;2022-09-09T12:14:35;0.63;;;0.50;;
18883;SDS011;9574;47.282;9.640;2022-09-09T12:17:17;0.40;;;0.40;;
18883;SDS011;9574;47.282;9.640;2022-09-09T12:19:47;3.40;;;0.35;;
18883;SDS011;9574;47.282;9.640;2022-09-09T12:22:29;0.85;;;0.47;;
18883;SDS011;9574;47.282;9.640;2022-09-09T12:25:06;0.40;;;0.40;;
18883;SDS011;9574;47.282;9.640;2022-09-09T12:27:44;1.55;;;0.50;;
18883;SDS011;9574;47.282;9.640;2022-09-09T12:30:18;0.47;;;0.47;;
18883;SDS011;9574;47.282;9.640;2022-09-09T12:32:46;0.30;;;0.30;;
18883;SDS011;9574;47.282;9.640;2022-09-09T12:35:16;0.40;;;0.40;;
18883;SDS011;9574;47.282;9.640;2022-09-09T12:37:48;0.30;;;0.30;;
18883;SDS011;9574;47.282;9.640;2022-09-09T12:40:20;0.40;;;0.40;;
18883;SDS011;9574;47.282;9.640;2022-09-09T12:42:50;0.55;;;0.50;;
18883;SDS011;9574;47.282;9.640;2022-09-09T12:45:18;0.80;;;0.52;;
18883;SDS011;9574;47.282;9.640;2022-09-09T12:47:46;1.38;;;0.60;;
18883;SDS011;9574;47.282;9.640;2022-09-09T12:50:17;0.98;;;0.60;;
18883;SDS011;9574;47.282;9.640;2022-09-09T12:52:48;0.50;;;0.50;;
18883;SDS011;9574;47.282;9.640;2022-09-09T12:55:17;0.38;;;0.38;;
18883;SDS011;9574;47.282;9.640;2022-09-09T12:57:46;0.77;;;0.50;;
18883;SDS011;9574;47.282;9.640;2022-09-09T13:00:19;0.75;;;0.45;;
18883;SDS011;9574;47.282;9.640;2022-09-09T13:02:49;0.35;;;0.35;;
18883;SDS011;9574;47.282;9.640;2022-09-09T13:05:18;0.50;;;0.50;;
18883;SDS011;9574;47.282;9.640;2022-09-09T13:07:48;0.73;;;0.52;;
18883;SDS011;9574;47.282;9.640;2022-09-09T13:10:18;1.17;;;0.40;;
18883;SDS011;9574;47.282;9.640;2022-09-09T13:12:54;0.47;;;0.45;;
18883;SDS011;9574;47.282;9.640;2022-09-09T13:15:25;1.70;;;0.60;;
18883;SDS011;9574;47.282;9.640;2022-09-09T13:17:55;0.93;;;0.80;;
18883;SDS011;9574;47.282;9.640;2022-09-09T13:20:23;1.95;;;0.55;;
18883;SDS011;9574;47.282;9.640;2022-09-09T13:22:51;0.52;;;0.40;;
18883;SDS011;9574;47.282;9.640;2022-09-09T13:25:21;0.40;;;0.38;;
18883;SDS011;9574;47.282;9.640;2022-09-09T13:27:56;1.13;;;0.55;;
18883;SDS011;9574;47.282;9.640;2022-09-09T13:30:27;1.65;;;0.50;;
18883;SDS011;9574;47.282;9.640;2022-09-09T13:32:59;1.23;;;0.45;;
18883;SDS011;9574;47.282;9.640;2022-09-09T13:35:28;1.05;;;0.30;;
18883;SDS011;9574;47.282;9.640;2022-09-09T13:37:55;0.57;;;0.50;;
18883;SDS011;9574;47.282;9.640;2022-09-09T13:40:23;0.32;;;0.32;;
18883;SDS011;9574;47.282;9.640;2022-09-09T13:42:51;0.80;;;0.40;;
18883;SDS011;9574;47.282;9.640;2022-09-09T13:45:22;0.40;;;0.40;;
18883;SDS011;9574;47.282;9.640;2022-09-09T13:47:53;0.45;;;0.40;;
18883;SDS011;9574;47.282;9.640;2022-09-09T13:50:21;0.73;;;0.50;;
18883;SDS011;9574;47.282;9.640;2022-09-09T13:52:49;1.15;;;0.50;;
18883;SDS011;9574;47.282;9.640;2022-09-09T13:55:18;0.70;;;0.50;;
18883;SDS011;9574;47.282;9.640;2022-09-09T13:57:50;0.40;;;0.40;;
18883;SDS011;9574;47.282;9.640;2022-09-09T14:00:18;0.47;;;0.40;;
18883;SDS011;9574;47.282;9.640;2022-09-09T14:02:46;0.40;;;0.40;;
18883;SDS011;9574;47.282;9.640;2022-09-09T14:05:14;0.40;;;0.40;;
18883;SDS011;9574;47.282;9.640;2022-09-09T14:07:42;0.75;;;0.55;;
18883;SDS011;9574;47.282;9.640;2022-09-09T14:10:11;1.17;;;0.50;;
18883;SDS011;9574;47.282;9.640;2022-09-09T14:12:38;0.50;;;0.50;;
18883;SDS011;9574;47.282;9.640;2022-09-09T14:15:06;0.40;;;0.40;;
18883;SDS011;9574;47.282;9.640;2022-09-09T14:17:34;1.38;;;0.60;;
18883;SDS011;9574;47.282;9.640;2022-09-09T14:20:01;0.77;;;0.70;;
18883;SDS011;9574;47.282;9.640;2022-09-09T14:22:31;0.95;;;0.88;;
18883;SDS011;9574;47.282;9.640;2022-09-09T14:24:58;0.60;;;0.60;;
18883;SDS011;9574;47.282;9.640;2022-09-09T14:27:25;0.47;;;0.40;;
18883;SDS011;9574;47.282;9.640;2022-09-09T14:29:58;0.57;;;0.57;;
18883;SDS011;9574;47.282;9.640;2022-09-09T14:32:25;0.50;;;0.50;;
18883;SDS011;9574;47.282;9.640;2022-09-09T14:34:54;0.50;;;0.50;;
18883;SDS011;9574;47.282;9.640;2022-09-09T14:37:21;1.55;;;0.60;;
18883;SDS011;9574;47.282;9.640;2022-09-09T14:39:50;0.50;;;0.50;;
18883;SDS011;9574;47.282;9.640;2022-09-09T14:42:17;0.40;;;0.40;;
18883;SDS011;9574;47.282;9.640;2022-09-09T14:44:48;0.43;;;0.40;;
18883;SDS011;9574;47.282;9.640;2022-09-09T14:47:16;1.33;;;0.40;;
18883;SDS011;9574;47.282;9.640;2022-09-09T14:49:45;0.50;;;0.50;;
18883;SDS011;9574;47.282;9.640;2022-09-09T14:52:15;0.55;;;0.50;;
18883;SDS011;9574;47.282;9.640;2022-09-09T14:54:42;0.60;;;0.40;;
18883;SDS011;9574;47.282;9.640;2022-09-09T14:57:11;0.85;;;0.50;;
18883;SDS011;9574;47.282;9.640;2022-09-09T14:59:38;0.30;;;0.30;;
18883;SDS011;9574;47.282;9.640;2022-09-09T15:02:05;0.50;;;0.50;;
18883;SDS011;9574;47.282;9.640;2022-09-09T15:04:33;0.50;;;0.50;;
18883;SDS011;9574;47.282;9.640;2022-09-09T15:07:00;1.70;;;0.40;;
18883;SDS011;9574;47.282;9.640;2022-09-09T15:09:28;0.40;;;0.40;;
18883;SDS011;9574;47.282;9.640;2022-09-09T15:11:55;0.65;;;0.45;;
18883;SDS011;9574;47.282;9.640;2022-09-09T15:14:23;0.70;;;0.50;;
18883;SDS011;9574;47.282;9.640;2022-09-09T15:16:51;0.55;;;0.55;;
18883;SDS011;9574;47.282;9.640;2022-09-09T15:19:18;0.80;;;0.68;;
18883;SDS011;9574;47.282;9.640;2022-09-09T15:21:45;0.57;;;0.52;;
18883;SDS011;9574;47.282;9.640;2022-09-09T15:24:12;0.43;;;0.43;;
18883;SDS011;9574;47.282;9.640;2022-09-09T15:26:39;1.02;;;0.50;;
18883;SDS011;9574;47.282;9.640;2022-09-09T15:29:06;0.52;;;0.52;;
18883;SDS011;9574;47.282;9.640;2022-09-09T15:31:35;0.57;;;0.57;;
18883;SDS011;9574;47.282;9.640;2022-09-09T15:34:06;1.17;;;0.50;;
18883;SDS011;9574;47.282;9.640;2022-09-09T15:36:34;0.38;;;0.38;;
18883;SDS011;9574;47.282;9.640;2022-09-09T15:39:03;0.65;;;0.45;;
18883;SDS011;9574;47.282;9.640;2022-09-09T15:41:31;0.63;;;0.40;;
18883;SDS011;9574;47.282;9.640;2022-09-09T15:43:58;1.63;;;0.50;;